Aérodrome :
LOGIN :

S'inscrire | Disclaimer

   EN    FR    IT 

 










Légende :    VFR   VFR Marginal   IFR   IFR Intensif   IFR Très Intensif
Visi : 
Plafond : 
>= 8 km
>= 3000ft
5 à 8 km
1000 à 3000 ft
1500m à 5 km
500 à 1000 ft
800 à 1500m
200 à 500 ft
< 800m
< 200 ft
Symboles :   Orages  Brouillard  Fortes neiges  Fortes précipitations  Vent > 20 kt
SIGMETs :   Divers  Orages  Givrage  Turbulence  Onde Orograph.  Cendres Volcan.






- Altitude de l'aérodrome : 0 ft
- Code IATA : QFR


LIRH - Frosinone Military

DERNIER METAR :
  • 061255Z 18010KT 9999 FEW040TCU SCT045 31/15 Q1010 RMK BKN MON LIB NC VIS MIN 9999 WIND THR16 /////KT BLU

METARs EXPIRÉS :
  • 061155Z 20004KT 9999 SCT040 30/16 Q1011 RMK SCT MON LIB NC VIS MIN 9999 WIND THR16 /////KT BLU
  • 061055Z 10004KT 9999 FEW040 29/16 Q1011

TAF TAF LIRH
Valide du 06 à 12h jusqu'au 06 à 21h UTC


061100Z 0612/0621 18006KT 9999 SCT040
TEMPO 0612/0616 20016KT



MET'MAP, la Météo Aéronautique d'un coup d'oeil ! - Copyright ORBIFLY Décembre 2007 - Disclaimer

ORBIFLY MET'MAP TEAM :

Programmation & Développement : Alexandra Zaïnal
Sur une idée originale de : Baudouin d'Aumeries
Assistance à la programmation : Marc-Olivier Méhu
Soutien technique & logistique : Manuel Goepfert

Contact : metmap@orbifly.com




SOURCES & CREDITS :

   NOAA